createdAt,value
2019-01-16T00:00:55.304Z,12.83
2019-01-16T00:03:42.083Z,9.93
2019-01-16T00:06:47.097Z,10.90
2019-01-16T00:09:32.289Z,11.37
2019-01-16T00:12:18.247Z,9.60
2019-01-16T00:15:11.268Z,10.87
2019-01-16T00:17:56.720Z,11.10
2019-01-16T00:20:52.663Z,10.07
2019-01-16T00:23:39.710Z,11.47
2019-01-16T00:26:25.702Z,9.67
2019-01-16T00:29:12.452Z,12.20
2019-01-16T00:48:00.479Z,10.50
2019-01-16T00:50:49.851Z,9.67
2019-01-16T00:53:24.092Z,9.20
2019-01-16T00:56:02.001Z,9.37
2019-01-16T00:58:47.505Z,8.23
2019-01-16T01:01:32.202Z,8.07
2019-01-16T01:04:18.008Z,7.20
2019-01-16T01:07:03.648Z,8.43
2019-01-16T01:09:59.331Z,8.37
2019-01-16T01:12:58.186Z,6.90
2019-01-16T01:15:33.409Z,7.20
2019-01-16T01:18:40.652Z,8.50
2019-01-16T01:21:30.029Z,7.47
2019-01-16T01:24:15.418Z,7.23
2019-01-16T01:27:02.164Z,6.80
2019-01-16T01:29:42.620Z,8.07
2019-01-16T01:32:35.291Z,5.57
2019-01-16T01:35:20.765Z,7.37
2019-01-16T01:38:04.687Z,6.17
2019-01-16T01:40:50.211Z,6.93
2019-01-16T01:43:35.677Z,6.50
2019-01-16T01:46:22.699Z,6.63
2019-01-16T01:49:09.775Z,6.17
2019-01-16T01:51:55.262Z,6.03
2019-01-16T01:54:50.565Z,6.70
2019-01-16T01:57:36.024Z,6.93
2019-01-16T02:00:35.704Z,7.37
2019-01-16T02:03:21.097Z,6.57
2019-01-16T02:05:59.064Z,6.60
2019-01-16T02:08:40.771Z,6.03
2019-01-16T02:11:42.184Z,6.23
2019-01-16T02:14:33.362Z,6.57
2019-01-16T02:17:22.732Z,6.73
2019-01-16T02:20:14.027Z,6.50
2019-01-16T02:22:59.265Z,5.67
2019-01-16T02:25:48.803Z,5.57
2019-01-16T02:28:38.360Z,5.47
2019-01-16T02:31:23.809Z,5.97
2019-01-16T02:34:16.719Z,5.67
2019-01-16T02:37:00.523Z,6.30
2019-01-16T02:39:46.056Z,5.83
2019-01-16T02:42:32.917Z,5.57
2019-01-16T02:45:20.037Z,4.63
2019-01-16T02:48:00.473Z,4.30
2019-01-16T02:50:54.549Z,4.83
2019-01-16T02:53:39.719Z,5.60
2019-01-16T02:56:14.382Z,5.10
2019-01-16T02:59:04.128Z,5.20
2019-01-16T03:01:41.311Z,4.87
2019-01-16T03:04:26.550Z,5.70
2019-01-16T03:07:13.326Z,4.93
2019-01-16T03:10:06.146Z,4.83
2019-01-16T03:12:55.699Z,5.87
2019-01-16T03:15:41.153Z,5.30
2019-01-16T03:18:26.478Z,4.80
2019-01-16T03:21:11.886Z,3.53
2019-01-16T03:23:56.215Z,3.50
2019-01-16T03:26:35.584Z,4.87
2019-01-16T03:29:21.342Z,4.17
2019-01-16T03:32:13.604Z,4.37
2019-01-16T03:34:56.790Z,4.40
2019-01-16T03:37:49.762Z,3.70
2019-01-16T03:40:39.444Z,3.73
2019-01-16T03:43:24.609Z,3.27
2019-01-16T03:46:09.795Z,3.80
2019-01-16T03:48:56.601Z,3.33
2019-01-16T03:51:49.039Z,3.73
2019-01-16T03:54:24.869Z,3.83
2019-01-16T03:57:26.331Z,1.93
2019-01-16T04:00:11.629Z,4.00
2019-01-16T04:03:04.113Z,3.83
2019-01-16T04:05:38.729Z,3.07
2019-01-16T04:08:35.618Z,2.93
2019-01-16T04:11:20.489Z,3.30
2019-01-16T04:14:16.399Z,3.00
2019-01-16T04:17:01.764Z,3.57
2019-01-16T04:19:40.073Z,3.30
2019-01-16T04:22:32.638Z,3.57
2019-01-16T04:25:22.537Z,3.23
2019-01-16T04:28:09.372Z,3.53
2019-01-16T04:30:58.884Z,3.13
2019-01-16T04:33:53.699Z,4.50
2019-01-16T04:36:33.785Z,3.60
2019-01-16T04:39:23.332Z,3.40
2019-01-16T04:42:14.229Z,5.87
2019-01-16T04:45:19.018Z,3.47
2019-01-16T04:48:06.058Z,3.20
2019-01-16T04:50:51.494Z,3.33
2019-01-16T04:53:40.595Z,4.10
2019-01-16T04:56:25.803Z,3.70
2019-01-16T04:59:11.382Z,2.83
2019-01-16T05:02:13.395Z,2.93
2019-01-16T05:05:04.122Z,3.87
2019-01-16T05:07:50.884Z,4.03
2019-01-16T05:10:33.548Z,4.00
2019-01-16T05:13:17.863Z,4.13
2019-01-16T05:16:04.748Z,2.90
2019-01-16T05:19:00.374Z,3.60
2019-01-16T05:21:59.293Z,3.10
2019-01-16T05:24:46.050Z,3.47
2019-01-16T05:27:31.318Z,2.50
2019-01-16T05:30:12.157Z,2.53
2019-01-16T05:32:59.300Z,3.10
2019-01-16T05:35:46.151Z,2.73
2019-01-16T05:38:41.848Z,2.87
2019-01-16T05:41:31.704Z,2.87
2019-01-16T05:44:17.007Z,2.40
2019-01-16T05:47:02.797Z,2.40
2019-01-16T05:49:46.963Z,2.50
2019-01-16T05:52:32.999Z,2.70
2019-01-16T05:55:18.665Z,3.67
2019-01-16T05:58:11.903Z,2.33
2019-01-16T06:01:04.648Z,2.60
2019-01-16T06:03:43.910Z,2.30
2019-01-16T06:06:36.200Z,2.57
2019-01-16T06:09:39.853Z,2.30
2019-01-16T06:12:25.485Z,2.00
2019-01-16T06:15:21.925Z,1.50
2019-01-16T06:17:58.816Z,1.57
2019-01-16T06:20:44.589Z,1.87
2019-01-16T06:23:34.358Z,1.73
2019-01-16T06:26:21.134Z,1.70
2019-01-16T06:29:10.452Z,2.07
2019-01-16T06:31:56.140Z,1.67
2019-01-16T06:34:52.120Z,1.60
2019-01-16T06:37:39.002Z,1.73
2019-01-16T06:40:29.024Z,2.13
2019-01-16T06:43:06.945Z,1.50
2019-01-16T06:45:55.827Z,1.97
2019-01-16T06:48:57.725Z,1.57
2019-01-16T06:51:50.433Z,1.83
2019-01-16T06:54:36.499Z,2.53
2019-01-16T06:57:29.131Z,2.70
2019-01-16T07:00:24.845Z,2.03
2019-01-16T07:03:11.374Z,2.20
2019-01-16T07:05:54.628Z,2.80
2019-01-16T07:08:39.408Z,2.37
2019-01-16T07:11:26.411Z,1.73
2019-01-16T07:14:21.992Z,2.37
2019-01-16T07:17:06.795Z,1.93
2019-01-16T07:19:44.921Z,2.20
2019-01-16T07:22:31.549Z,2.80
2019-01-16T07:25:23.225Z,3.03
2019-01-16T07:28:10.091Z,2.30
2019-01-16T07:30:55.287Z,2.10
2019-01-16T07:33:44.600Z,2.27
2019-01-16T07:36:33.175Z,2.40
2019-01-16T07:39:10.447Z,3.13
2019-01-16T07:42:15.176Z,1.83
2019-01-16T07:44:57.745Z,1.77
2019-01-16T07:47:43.035Z,2.47
2019-01-16T07:50:32.789Z,2.07
2019-01-16T07:53:34.852Z,3.00
2019-01-16T07:56:21.602Z,2.80
2019-01-16T07:59:11.129Z,3.07
2019-01-16T08:02:12.881Z,2.40
2019-01-16T08:04:58.581Z,4.80
2019-01-16T08:07:57.292Z,3.90
2019-01-16T08:10:59.276Z,3.70
2019-01-16T08:13:46.003Z,4.90
2019-01-16T08:16:31.490Z,3.83
2019-01-16T08:19:13.301Z,5.13
2019-01-16T08:22:12.301Z,4.67
2019-01-16T08:24:57.890Z,4.10
2019-01-16T08:27:50.734Z,4.70
2019-01-16T08:30:44.986Z,5.53
2019-01-16T08:33:37.997Z,4.87
2019-01-16T08:36:23.571Z,4.60
2019-01-16T08:39:13.227Z,4.40
2019-01-16T08:41:54.188Z,6.00
2019-01-16T08:44:34.516Z,6.03
2019-01-16T08:47:20.032Z,5.83
2019-01-16T08:50:05.657Z,6.10
2019-01-16T08:52:50.913Z,5.30
2019-01-16T08:55:43.871Z,5.13
2019-01-16T08:58:39.550Z,5.37
2019-01-16T09:01:35.000Z,5.93
2019-01-16T09:04:12.831Z,6.17
2019-01-16T09:06:58.053Z,3.40
2019-01-16T09:09:43.336Z,6.00
2019-01-16T09:12:30.172Z,5.60
2019-01-16T09:15:17.001Z,5.97
2019-01-16T09:18:03.786Z,5.37
2019-01-16T09:20:56.561Z,6.80
2019-01-16T09:23:58.241Z,5.90
2019-01-16T09:26:50.690Z,4.37
2019-01-16T09:29:36.144Z,6.07
2019-01-16T09:32:16.687Z,5.87
2019-01-16T09:35:00.665Z,4.23
2019-01-16T09:37:44.980Z,6.97
2019-01-16T09:40:31.811Z,5.33
2019-01-16T09:43:16.853Z,5.13
2019-01-16T09:46:09.635Z,4.77
2019-01-16T09:48:51.852Z,5.60
2019-01-16T09:51:41.780Z,6.07
2019-01-16T09:54:37.559Z,6.97
2019-01-16T09:57:24.335Z,6.57
2019-01-16T10:00:09.711Z,6.43
2019-01-16T10:02:56.830Z,5.47
2019-01-16T10:05:43.725Z,5.10
2019-01-16T10:08:31.646Z,5.93
2019-01-16T10:11:12.455Z,5.33
2019-01-16T10:14:07.756Z,5.47
2019-01-16T10:16:53.071Z,5.20
2019-01-16T10:19:38.205Z,7.03
2019-01-16T10:22:23.305Z,7.40
2019-01-16T10:25:21.747Z,6.10
2019-01-16T10:28:08.094Z,6.80
2019-01-16T10:30:46.710Z,7.13
2019-01-16T10:33:39.084Z,7.67
2019-01-16T10:36:24.480Z,7.57
2019-01-16T10:39:09.656Z,6.70
2019-01-16T10:41:49.193Z,7.37
2019-01-16T10:44:31.026Z,8.57
2019-01-16T10:47:30.319Z,5.30
2019-01-16T10:50:23.559Z,8.07
2019-01-16T10:53:16.119Z,5.77
2019-01-16T10:56:01.997Z,6.60
2019-01-16T10:58:53.915Z,7.40
2019-01-16T11:01:34.059Z,6.90
2019-01-16T11:04:14.538Z,7.17
2019-01-16T11:06:58.486Z,9.70
2019-01-16T11:09:34.881Z,8.80
2019-01-16T11:12:19.208Z,7.23
2019-01-16T11:15:06.043Z,9.83
2019-01-16T11:17:58.846Z,4.37
2019-01-16T11:20:48.502Z,7.83
2019-01-16T11:23:33.816Z,8.07
2019-01-16T11:26:17.443Z,9.20
2019-01-16T11:29:16.253Z,7.03
2019-01-16T11:32:09.048Z,7.70
2019-01-16T11:34:54.435Z,8.17
2019-01-16T11:37:53.422Z,7.90
2019-01-16T11:40:40.205Z,5.77
2019-01-16T11:43:22.031Z,6.10
2019-01-16T11:46:23.711Z,6.60
2019-01-16T11:49:10.476Z,6.43
2019-01-16T11:52:00.398Z,5.20
2019-01-16T11:54:46.048Z,5.80
2019-01-16T11:57:35.654Z,4.33
2019-01-16T12:00:21.484Z,6.17
2019-01-16T12:03:06.212Z,5.33
2019-01-16T12:06:02.565Z,5.43
2019-01-16T12:08:45.383Z,5.57
2019-01-16T12:11:22.493Z,5.03
2019-01-16T12:14:12.195Z,5.53
2019-01-16T12:17:01.753Z,5.73
2019-01-16T12:19:53.198Z,6.20
2019-01-16T12:22:42.847Z,5.37
2019-01-16T12:25:35.484Z,3.27
2019-01-16T12:28:22.596Z,5.63
2019-01-16T12:31:09.931Z,4.97
2019-01-16T12:34:08.524Z,4.23
2019-01-16T12:36:53.768Z,5.87
2019-01-16T12:39:39.191Z,5.23
2019-01-16T12:42:32.257Z,5.20
2019-01-16T12:45:22.133Z,5.23
2019-01-16T12:48:11.780Z,5.80
2019-01-16T12:50:57.181Z,4.57
2019-01-16T12:53:46.522Z,4.23
2019-01-16T12:56:27.404Z,5.83
2019-01-16T12:59:29.081Z,5.70
2019-01-16T13:02:14.376Z,3.97
2019-01-16T13:04:59.558Z,4.40
2019-01-16T13:07:58.450Z,4.23
2019-01-16T13:10:54.025Z,3.63
2019-01-16T13:13:37.016Z,5.10
2019-01-16T13:16:32.743Z,5.17
2019-01-16T13:19:18.185Z,5.20
2019-01-16T13:22:03.802Z,4.67
2019-01-16T13:24:50.686Z,4.90
2019-01-16T13:27:35.858Z,3.70
2019-01-16T13:30:28.852Z,3.73
2019-01-16T13:33:22.589Z,4.10
2019-01-16T13:36:21.551Z,3.83
2019-01-16T13:39:14.143Z,4.60
2019-01-16T13:42:03.671Z,4.50
2019-01-16T13:44:59.195Z,2.60
2019-01-16T13:47:39.994Z,5.47
2019-01-16T13:50:29.723Z,3.07
2019-01-16T13:53:14.962Z,4.33
2019-01-16T13:56:02.612Z,4.20
2019-01-16T13:58:43.767Z,5.30
2019-01-16T14:01:28.733Z,4.20
2019-01-16T14:04:15.502Z,4.23
2019-01-16T14:07:01.295Z,3.53
2019-01-16T14:09:59.700Z,2.73
2019-01-16T14:12:49.240Z,4.13
2019-01-16T14:15:32.645Z,3.80
2019-01-16T14:18:31.107Z,5.03
2019-01-16T14:21:16.865Z,4.90
2019-01-16T14:24:02.521Z,4.47
2019-01-16T14:26:47.998Z,5.00
2019-01-16T14:29:33.540Z,6.17
2019-01-16T14:32:19.032Z,6.70
2019-01-16T14:35:21.215Z,4.67
2019-01-16T14:38:20.109Z,3.73
2019-01-16T14:41:03.108Z,5.13
2019-01-16T14:43:48.599Z,6.30
2019-01-16T14:46:33.674Z,5.23
2019-01-16T14:49:15.983Z,6.37
2019-01-16T14:52:05.865Z,5.80
2019-01-16T14:54:55.437Z,4.87
2019-01-16T14:57:34.306Z,7.33
2019-01-16T15:00:19.495Z,7.70
2019-01-16T15:03:21.458Z,9.17
2019-01-16T15:06:20.234Z,7.93
2019-01-16T15:09:09.719Z,6.10
2019-01-16T15:12:06.066Z,6.80
2019-01-16T15:15:04.432Z,6.13
2019-01-16T15:17:56.908Z,8.60
2019-01-16T15:20:49.757Z,5.77
2019-01-16T15:23:39.394Z,9.77
2019-01-16T15:26:32.508Z,6.73
2019-01-16T15:29:22.060Z,8.37
2019-01-16T15:32:17.678Z,10.40
2019-01-16T15:35:02.886Z,8.43
2019-01-16T15:38:07.346Z,6.70
2019-01-16T15:40:56.963Z,8.47
2019-01-16T15:43:41.985Z,10.47
2019-01-16T15:46:34.520Z,9.23
2019-01-16T15:49:30.206Z,8.13
2019-01-16T15:52:15.425Z,10.43
2019-01-16T15:55:00.825Z,10.57
2019-01-16T15:57:35.761Z,9.03
2019-01-16T16:00:28.795Z,8.97
2019-01-16T16:03:18.519Z,7.10
2019-01-16T16:06:03.696Z,8.67
2019-01-16T16:08:56.501Z,8.53
2019-01-16T16:11:46.423Z,8.80
2019-01-16T16:14:29.184Z,9.47
2019-01-16T16:17:14.678Z,6.77
2019-01-16T16:19:59.804Z,10.40
2019-01-16T16:22:37.530Z,8.27
2019-01-16T16:25:14.064Z,11.07
2019-01-16T16:28:12.922Z,7.87
2019-01-16T16:30:55.455Z,8.97
2019-01-16T16:33:48.104Z,9.63
2019-01-16T16:36:49.798Z,7.07
2019-01-16T16:39:45.387Z,10.17
2019-01-16T16:42:28.781Z,9.23
2019-01-16T16:45:12.781Z,7.13
2019-01-16T16:47:57.680Z,6.93
2019-01-16T16:50:44.724Z,8.10
2019-01-16T16:53:29.860Z,10.00
2019-01-16T16:56:28.737Z,8.27
2019-01-16T16:59:14.645Z,5.57
2019-01-16T17:02:04.534Z,8.10
2019-01-16T17:04:49.749Z,8.60
2019-01-16T17:07:39.604Z,8.80
2019-01-16T17:10:22.093Z,3.83
2019-01-16T17:12:57.953Z,9.03
2019-01-16T17:15:40.396Z,6.80
2019-01-16T17:18:30.003Z,9.07
2019-01-16T17:21:34.784Z,6.07
2019-01-16T17:24:18.965Z,8.77
2019-01-16T17:26:54.872Z,9.07
2019-01-16T17:29:47.475Z,10.10
2019-01-16T17:32:34.260Z,7.83
2019-01-16T17:35:20.395Z,8.40
2019-01-16T17:38:05.624Z,7.33
2019-01-16T17:40:58.616Z,7.93
2019-01-16T17:43:44.208Z,7.73
2019-01-16T17:46:33.988Z,4.83
2019-01-16T17:49:19.267Z,5.73
2019-01-16T17:52:12.288Z,6.07
2019-01-16T17:54:57.643Z,6.20
2019-01-16T17:57:42.576Z,6.13
2019-01-16T18:00:32.481Z,6.27
2019-01-16T18:03:34.465Z,5.97
2019-01-16T18:06:21.672Z,6.73
2019-01-16T18:09:11.544Z,6.83
2019-01-16T18:11:57.108Z,7.37
2019-01-16T18:14:50.102Z,5.57
2019-01-16T18:17:39.711Z,9.07
2019-01-16T18:20:40.000Z,7.80
2019-01-16T18:23:28.878Z,7.00
2019-01-16T18:26:33.425Z,5.53
2019-01-16T18:29:20.212Z,10.50
2019-01-16T18:32:12.523Z,8.03
2019-01-16T18:35:04.290Z,9.57
2019-01-16T18:37:50.379Z,8.27
2019-01-16T18:40:37.256Z,8.63
2019-01-16T18:43:33.392Z,5.87
2019-01-16T18:46:38.147Z,6.70
2019-01-16T18:49:23.531Z,7.17
2019-01-16T18:52:09.023Z,6.57
2019-01-16T18:55:02.277Z,5.87
2019-01-16T18:57:47.625Z,9.13
2019-01-16T19:00:33.825Z,7.83
2019-01-16T19:03:23.923Z,6.90
2019-01-16T19:06:10.783Z,6.57
2019-01-16T19:08:59.625Z,6.03
2019-01-16T19:11:49.760Z,5.17
2019-01-16T19:14:35.845Z,8.17
2019-01-16T19:17:22.831Z,7.53
2019-01-16T19:20:03.162Z,4.47
2019-01-16T19:22:41.414Z,7.50
2019-01-16T19:25:28.388Z,7.17
2019-01-16T19:28:23.949Z,8.50
2019-01-16T19:31:10.735Z,7.53
2019-01-16T19:33:46.021Z,7.50
2019-01-16T19:36:32.890Z,5.73
2019-01-16T19:39:31.990Z,6.50
2019-01-16T19:42:19.105Z,6.27
2019-01-16T19:45:04.462Z,8.30
2019-01-16T19:47:47.608Z,5.37
2019-01-16T19:50:26.340Z,8.40
2019-01-16T19:53:11.881Z,8.70
2019-01-16T19:56:01.699Z,7.80
2019-01-16T19:58:57.442Z,7.80
2019-01-16T20:01:42.660Z,6.63
2019-01-16T20:04:29.467Z,8.00
2019-01-16T20:07:09.487Z,8.93
2019-01-16T20:09:54.797Z,8.70
2019-01-16T20:12:40.182Z,6.17
2019-01-16T20:15:18.201Z,7.17
2019-01-16T20:18:11.398Z,4.20
2019-01-16T20:21:10.469Z,7.90
2019-01-16T20:23:55.610Z,6.43
2019-01-16T20:26:42.436Z,5.77
2019-01-16T20:29:41.234Z,7.40
2019-01-16T20:32:26.978Z,8.63
2019-01-16T20:35:09.985Z,6.93
2019-01-16T20:38:13.503Z,7.87
2019-01-16T20:41:09.013Z,7.93
2019-01-16T20:43:49.384Z,6.43
2019-01-16T20:46:36.442Z,7.83
2019-01-16T20:49:15.572Z,8.07
2019-01-16T20:52:05.502Z,6.93
2019-01-16T20:54:50.676Z,5.57
2019-01-16T20:57:37.486Z,6.87
2019-01-16T21:00:19.456Z,7.50
2019-01-16T21:03:06.238Z,9.73
2019-01-16T21:05:58.734Z,8.20
2019-01-16T21:08:43.969Z,7.43
2019-01-16T21:11:34.131Z,6.50
2019-01-16T21:14:14.821Z,7.00
2019-01-16T21:16:54.729Z,3.80
2019-01-16T21:19:39.838Z,7.73
2019-01-16T21:22:24.727Z,6.67
2019-01-16T21:25:15.983Z,7.23
2019-01-16T21:28:01.162Z,7.13
2019-01-16T21:30:41.342Z,9.10
2019-01-16T21:33:26.858Z,8.70
2019-01-16T21:36:22.710Z,7.73
2019-01-16T21:39:24.733Z,9.73
2019-01-16T21:42:11.578Z,9.33
2019-01-16T21:44:56.808Z,9.27
2019-01-16T21:47:53.211Z,8.87
2019-01-16T21:50:41.252Z,9.47
2019-01-16T21:53:30.345Z,9.17
2019-01-16T21:56:17.666Z,9.40
2019-01-16T21:59:04.684Z,9.50
2019-01-16T22:01:51.429Z,7.80
2019-01-16T22:04:36.365Z,11.63
2019-01-16T22:07:29.276Z,8.77
2019-01-16T22:10:14.441Z,11.33
2019-01-16T22:13:16.328Z,10.53
2019-01-16T22:16:15.256Z,9.80
2019-01-16T22:19:10.931Z,10.57
2019-01-16T22:21:59.176Z,8.93
2019-01-16T22:25:01.059Z,9.80
2019-01-16T22:27:53.642Z,10.20
2019-01-16T22:30:40.474Z,6.13
2019-01-16T22:33:36.471Z,9.97
2019-01-16T22:36:21.872Z,10.30
2019-01-16T22:39:15.413Z,10.47
2019-01-16T22:45:25.259Z,10.80
2019-01-16T22:48:08.637Z,9.23
2019-01-16T22:50:55.674Z,12.07
2019-01-16T22:53:54.582Z,10.33
2019-01-16T22:56:41.062Z,12.33
2019-01-16T22:59:17.458Z,11.37
2019-01-16T23:02:04.238Z,12.10
2019-01-16T23:04:51.284Z,9.13
2019-01-16T23:07:44.043Z,10.13
2019-01-16T23:10:36.731Z,11.30
2019-01-16T23:13:14.243Z,9.47
2019-01-16T23:15:59.878Z,10.40
2019-01-16T23:18:45.089Z,11.57
2019-01-16T23:21:30.519Z,10.20
2019-01-16T23:24:04.836Z,11.00
2019-01-16T23:27:00.820Z,10.33
2019-01-16T23:29:50.310Z,10.07
2019-01-16T23:32:46.222Z,10.43
2019-01-16T23:35:32.991Z,10.47
2019-01-16T23:38:22.529Z,9.50
2019-01-16T23:41:09.303Z,9.00
2019-01-16T23:43:49.146Z,9.00
2019-01-16T23:46:50.804Z,8.63
2019-01-16T23:49:52.509Z,7.50
2019-01-16T23:52:28.426Z,7.83
2019-01-16T23:55:15.239Z,8.20
2019-01-16T23:58:13.645Z,7.37
